Bookmark and Share
Track history (hours):
 

Sioux Arrow

More information available from US FCC via Universal Licensing System and Coast Guard Vessel Documentation Center.

Last reported at 2014-Apr-17 23:33 UTC. Time now 2014-Apr-18 00:15 UTC.
Position N 48°31' W 122°36'.

Type: Port tender. MMSI: 366973370.

NotesDate/timePositionNaut miles runAvg speedWind from/ knotsBaromVisibWave heightAir tempDewpointWater temp
2014-Apr-17 23:33N 48°31' W 122°36'1 1.2
2014-Apr-17 22:33N 48°31' W 122°35'1 1.2
2014-Apr-17 21:33N 48°31' W 122°36'0 0.0
2014-Apr-17 20:33N 48°31' W 122°36'0 0.0
2014-Apr-17 19:33N 48°31' W 122°36'0 0.0
2014-Apr-17 18:33N 48°31' W 122°36'0 0.0
2014-Apr-17 17:33N 48°31' W 122°36'0 0.0
2014-Apr-17 16:33N 48°31' W 122°36'6 5.8
2014-Apr-17 15:33N 48°36' W 122°32'6 5.8
2014-Apr-17 14:34N 48°31' W 122°36'0 0.3
2014-Apr-17 13:33N 48°31' W 122°36'0 0.0
2014-Apr-17 00:07N 48°31' W 122°36'0 0.0
2014-Apr-16 23:33N 48°31' W 122°36'5 5.1
2014-Apr-16 22:33N 48°36' W 122°36'0 0.0
2014-Apr-16 21:33N 48°36' W 122°36'5 5.2
2014-Apr-16 20:33N 48°31' W 122°36'0 0.0
2014-Apr-16 19:33N 48°31' W 122°36'0 0.0
2014-Apr-16 18:33N 48°31' W 122°36'0 0.0
2014-Apr-16 17:33N 48°31' W 122°36'0 0.0
2014-Apr-16 16:33N 48°31' W 122°36'6 5.8
2014-Apr-16 15:33N 48°36' W 122°32'6 1.3
2014-Apr-16 11:05N 48°31' W 122°36'510.1
2014-Apr-16 10:33N 48°35' W 122°33'5 5.3
2014-Apr-16 09:33N 48°31' W 122°36'0 0.0
2014-Apr-16 08:34N 48°31' W 122°36'0 0.0
2014-Apr-16 07:33N 48°31' W 122°36'0 0.0
2014-Apr-16 06:33N 48°31' W 122°36'3 2.6
2014-Apr-16 05:33N 48°33' W 122°35'3 0.1
2014-Apr-14 23:34N 48°35' W 122°33'5 5.5
2014-Apr-14 22:34N 48°31' W 122°36'0 0.0
2014-Apr-14 21:33N 48°31' W 122°36'0 0.0
2014-Apr-14 20:33N 48°31' W 122°36'0 0.0
2014-Apr-14 19:33N 48°31' W 122°36'0 0.0
2014-Apr-14 18:33N 48°31' W 122°36'2 2.5
2014-Apr-14 17:34N 48°33' W 122°34'1 1.2
2014-Apr-14 16:32N 48°34' W 122°34'0 0.1
2014-Apr-14 15:34N 48°34' W 122°34'4 3.6
2014-Apr-14 14:34N 48°31' W 122°36'0 0.0
2014-Apr-13 22:33N 48°31' W 122°37'0 0.0
2014-Apr-12 02:33N 48°31' W 122°36'0 0.0
2014-Apr-12 01:33N 48°31' W 122°36'0 0.0
2014-Apr-12 00:33N 48°31' W 122°36'0 0.0
2014-Apr-11 23:33N 48°31' W 122°36'0 0.0
2014-Apr-11 22:33N 48°31' W 122°37'0 0.0
2014-Apr-11 21:33N 48°31' W 122°36'0 0.0
2014-Apr-11 20:33N 48°31' W 122°36'0 0.0
2014-Apr-11 19:33N 48°31' W 122°36'0 0.0
2014-Apr-11 18:33N 48°31' W 122°36'1 0.5
2014-Apr-11 17:33N 48°31' W 122°36'1 0.0
2014-Apr-11 06:31N 48°31' W 122°36'4 3.8
2014-Apr-11 05:33N 48°34' W 122°34'4 3.6
2014-Apr-11 04:33N 48°31' W 122°36'0 0.0
2014-Apr-11 03:33N 48°31' W 122°36'0 0.0
2014-Apr-11 02:33N 48°31' W 122°36'0 0.0
2014-Apr-11 01:33N 48°31' W 122°36'0 0.3
2014-Apr-11 00:33N 48°31' W 122°36'0 0.2
2014-Apr-10 23:33N 48°31' W 122°36'6 5.9
2014-Apr-10 22:33N 48°36' W 122°34'5 4.9
2014-Apr-10 21:33N 48°32' W 122°35'1 0.0
2014-Apr-10 05:33N 48°31' W 122°34'1 1.4
2014-Apr-10 04:33N 48°31' W 122°36'0 0.1
2014-Apr-10 03:33N 48°31' W 122°37'4 4.0
2014-Apr-10 02:33N 48°34' W 122°34'4 4.0
2014-Apr-10 01:33N 48°31' W 122°37'0 0.0
2014-Apr-10 00:33N 48°31' W 122°36'0 0.0
2014-Apr-09 23:33N 48°31' W 122°36'6 6.2
2014-Apr-09 22:34N 48°36' W 122°32'6 6.1
2014-Apr-09 21:33N 48°31' W 122°37'5 5.3
2014-Apr-09 20:33N 48°35' W 122°33'4 4.2
2014-Apr-09 19:33N 48°31' W 122°34'0 0.2
2014-Apr-09 18:33N 48°31' W 122°34'2 2.0
2014-Apr-09 17:33N 48°31' W 122°37'2 1.9
2014-Apr-09 16:33N 48°31' W 122°34'2 1.9
2014-Apr-09 15:33N 48°31' W 122°37'0 0.0
2014-Apr-09 12:13N 48°31' W 122°36'5 8.1
2014-Apr-09 11:33N 48°35' W 122°33'5 0.7
2014-Apr-09 04:13N 48°31' W 122°36'4 5.6
2014-Apr-09 03:33N 48°34' W 122°34'1 1.4
2014-Apr-09 02:33N 48°33' W 122°34'2 2.4
2014-Apr-09 01:33N 48°31' W 122°36'0 0.0
2014-Apr-09 00:33N 48°31' W 122°36'0 0.0
2014-Apr-08 23:33N 48°31' W 122°36'2 1.5
2014-Apr-08 22:33N 48°31' W 122°34'2 1.5
2014-Apr-08 21:33N 48°31' W 122°36'0 0.1
2014-Apr-08 20:33N 48°31' W 122°37'2 1.7
2014-Apr-08 19:33N 48°31' W 122°34'2 1.7
2014-Apr-08 18:33N 48°31' W 122°36'0 0.0
2014-Apr-08 17:33N 48°31' W 122°36'0 0.0
2014-Apr-08 16:33N 48°31' W 122°36'0 0.0
2014-Apr-08 15:33N 48°31' W 122°36'4 3.7
2014-Apr-08 14:33N 48°34' W 122°35'1413.7
2014-Apr-08 13:33N 48°47' W 122°43'5 4.4
2014-Apr-08 12:29N 48°51' W 122°46'1010.9
2014-Apr-08 11:33N 48°42' W 122°39'1211.8
2014-Apr-08 10:33N 48°31' W 122°36'0 0.0
2014-Apr-08 06:34N 48°31' W 122°36'0 0.0
2014-Apr-08 05:34N 48°31' W 122°36'1 0.7
2014-Apr-08 04:33N 48°31' W 122°37'1 0.7
2014-Apr-08 03:33N 48°31' W 122°36'0 0.0
2014-Apr-08 02:33N 48°31' W 122°36'0 0.1
2014-Apr-08 01:33N 48°31' W 122°37'0 0.1
2014-Apr-08 00:33N 48°31' W 122°36'0 0.2
2014-Apr-07 23:33N 48°31' W 122°36'  

Dump ship's entire track history

sailing weather and tide predictions

Sioux Arrow — WAG6168 — position and weather